createdAt,value
2023-03-11T00:00:08.898Z,98416.13
2023-03-11T00:00:27.851Z,98415.28
2023-03-11T00:01:01.785Z,98412.63
2023-03-11T00:01:14.984Z,98413.47
2023-03-11T00:01:28.301Z,98411.81
2023-03-11T00:01:41.177Z,98413.47
2023-03-11T00:01:54.243Z,98413.47
2023-03-11T00:02:07.354Z,98415.28
2023-03-11T00:02:21.121Z,98413.47
2023-03-11T00:02:35.550Z,98410.94
2023-03-11T00:02:49.922Z,98416.13
2023-03-11T00:03:05.642Z,98412.63
2023-03-11T00:03:20.461Z,98406.53
2023-03-11T00:03:33.423Z,98419.75
2023-03-11T00:03:47.331Z,98412.78
2023-03-11T00:04:00.491Z,98418.88
2023-03-11T00:04:13.560Z,98416.25
2023-03-11T00:04:26.489Z,98419.75
2023-03-11T00:04:39.525Z,98412.78
2023-03-11T00:04:54.150Z,98415.28
2023-03-11T00:05:08.918Z,98408.31
2023-03-11T00:05:25.055Z,98411.81
2023-03-11T00:05:39.589Z,98412.94
2023-03-11T00:05:54.495Z,98407.34
2023-03-11T00:06:07.830Z,98410.00
2023-03-11T00:06:22.023Z,98414.47
2023-03-11T00:06:35.724Z,98415.28
2023-03-11T00:06:48.854Z,98414.47
2023-03-11T00:07:02.032Z,98410.81
2023-03-11T00:07:15.124Z,98415.28
2023-03-11T00:07:28.111Z,98418.63
2023-03-11T00:07:41.111Z,98418.63
2023-03-11T00:07:55.859Z,98412.50
2023-03-11T00:08:12.917Z,98415.28
2023-03-11T00:08:26.135Z,98411.66
2023-03-11T00:08:39.116Z,98418.63
2023-03-11T00:08:52.567Z,98413.34
2023-03-11T00:09:05.702Z,98408.06
2023-03-11T00:09:20.060Z,98412.50
2023-03-11T00:09:33.091Z,98409.88
2023-03-11T00:09:46.998Z,98406.34
2023-03-11T00:10:00.125Z,98407.22
2023-03-11T00:10:16.169Z,98408.06
2023-03-11T00:10:31.936Z,98408.06
2023-03-11T00:10:48.722Z,98411.66
2023-03-11T00:11:02.224Z,98408.06
2023-03-11T00:11:15.181Z,98413.34
2023-03-11T00:11:28.139Z,98405.41
2023-03-11T00:11:40.997Z,98413.34
2023-03-11T00:11:54.097Z,98411.81
2023-03-11T00:12:07.885Z,98413.34
2023-03-11T00:12:21.017Z,98408.06
2023-03-11T00:12:34.922Z,98414.16
2023-03-11T00:12:48.089Z,98408.88
2023-03-11T00:13:02.322Z,98408.06
2023-03-11T00:13:17.130Z,98406.34
2023-03-11T00:13:31.119Z,98404.56
2023-03-11T00:13:45.030Z,98409.88
2023-03-11T00:13:57.963Z,98404.56
2023-03-11T00:14:10.982Z,98406.34
2023-03-11T00:14:24.071Z,98406.22
2023-03-11T00:14:37.201Z,98411.66
2023-03-11T00:14:54.221Z,98406.34
2023-03-11T00:15:09.191Z,98407.34
2023-03-11T00:15:22.749Z,98407.34
2023-03-11T00:15:37.927Z,98405.53
2023-03-11T00:15:55.999Z,98412.63
2023-03-11T00:16:10.019Z,98404.72
2023-03-11T00:16:23.209Z,98407.34
2023-03-11T00:16:36.298Z,98403.88
2023-03-11T00:16:50.699Z,98410.00
2023-03-11T00:17:20.028Z,98403.88
2023-03-11T00:17:33.615Z,98403.03
2023-03-11T00:17:48.377Z,98401.38
2023-03-11T00:18:01.430Z,98407.47
2023-03-11T00:18:14.513Z,98408.31
2023-03-11T00:18:31.782Z,98405.81
2023-03-11T00:18:44.906Z,98407.66
2023-03-11T00:18:58.844Z,98405.81
2023-03-11T00:19:12.644Z,98406.66
2023-03-11T00:19:26.822Z,98405.81
2023-03-11T00:19:40.801Z,98400.53
2023-03-11T00:19:56.305Z,98405.00
2023-03-11T00:20:18.766Z,98405.94
2023-03-11T00:20:35.142Z,98406.78
2023-03-11T00:20:48.564Z,98399.84
2023-03-11T00:21:01.839Z,98402.47
2023-03-11T00:21:32.177Z,98403.31
2023-03-11T00:21:45.781Z,98405.13
2023-03-11T00:21:58.359Z,98407.78
2023-03-11T00:22:11.032Z,98402.47
2023-03-11T00:22:23.666Z,98403.44
2023-03-11T00:22:36.378Z,98399.00
2023-03-11T00:22:51.019Z,98400.78
2023-03-11T00:23:04.992Z,98407.91
2023-03-11T00:23:18.615Z,98397.31
2023-03-11T00:23:31.236Z,98405.25
2023-03-11T00:23:43.874Z,98399.97
2023-03-11T00:23:58.319Z,98406.09
2023-03-11T00:24:11.222Z,98402.63
2023-03-11T00:24:23.862Z,98397.31
2023-03-11T00:24:36.770Z,98398.16
2023-03-11T00:24:50.364Z,98403.44
2023-03-11T00:25:03.105Z,98399.97
2023-03-11T00:25:15.708Z,98405.25
2023-03-11T00:25:34.560Z,98402.63
2023-03-11T00:25:47.711Z,98399.97
2023-03-11T00:26:03.178Z,98403.59
2023-03-11T00:26:16.902Z,98399.13
2023-03-11T00:26:29.819Z,98399.97
2023-03-11T00:26:42.450Z,98402.63
2023-03-11T00:26:55.172Z,98405.25
2023-03-11T00:27:07.778Z,98410.53
2023-03-11T00:27:20.356Z,98406.25
2023-03-11T00:27:32.966Z,98403.59
2023-03-11T00:27:45.657Z,98405.25
2023-03-11T00:27:58.457Z,98405.25
2023-03-11T00:28:12.331Z,98404.44
2023-03-11T00:28:26.763Z,98407.19
2023-03-11T00:28:39.727Z,98405.53
2023-03-11T00:28:52.414Z,98407.31
2023-03-11T00:29:05.193Z,98407.19
2023-03-11T00:29:17.863Z,98409.03
2023-03-11T00:29:30.495Z,98403.84
2023-03-11T00:29:43.101Z,98399.41
2023-03-11T00:29:56.655Z,98406.50
2023-03-11T00:30:12.567Z,98405.69
2023-03-11T00:30:25.978Z,98401.22
2023-03-11T00:30:40.757Z,98404.69
2023-03-11T00:30:53.566Z,98404.69
2023-03-11T00:31:08.053Z,98403.03
2023-03-11T00:31:20.681Z,98401.22
2023-03-11T00:31:33.346Z,98405.53
2023-03-11T00:31:45.960Z,98398.56
2023-03-11T00:31:58.594Z,98398.56
2023-03-11T00:32:11.232Z,98401.22
2023-03-11T00:32:24.128Z,98400.38
2023-03-11T00:32:36.989Z,98397.75
2023-03-11T00:32:50.702Z,98396.09
2023-03-11T00:33:04.854Z,98393.28
2023-03-11T00:33:17.495Z,98392.44
2023-03-11T00:33:30.106Z,98394.28
2023-03-11T00:33:42.804Z,98391.63
2023-03-11T00:33:57.325Z,98388.97
2023-03-11T00:34:09.922Z,98399.56
2023-03-11T00:34:22.561Z,98389.81
2023-03-11T00:34:36.131Z,98395.22
2023-03-11T00:34:48.731Z,98394.28
2023-03-11T00:35:03.113Z,98396.91
2023-03-11T00:35:19.560Z,98388.97
2023-03-11T00:35:33.565Z,98396.09
2023-03-11T00:35:47.217Z,98398.72
2023-03-11T00:36:00.422Z,98396.09
2023-03-11T00:36:23.054Z,98399.56
2023-03-11T00:36:35.636Z,98394.41
2023-03-11T00:36:48.243Z,98391.75
2023-03-11T00:37:00.837Z,98393.56
2023-03-11T00:37:13.444Z,98392.75
2023-03-11T00:37:26.268Z,98386.47
2023-03-11T00:37:39.878Z,98397.03
2023-03-11T00:37:55.334Z,98392.59
2023-03-11T00:38:11.971Z,98397.88
2023-03-11T00:38:24.775Z,98398.84
2023-03-11T00:38:37.413Z,98397.03
2023-03-11T00:38:51.607Z,98395.22
2023-03-11T00:39:06.706Z,98403.16
2023-03-11T00:39:19.334Z,98394.41
2023-03-11T00:39:31.928Z,98395.22
2023-03-11T00:39:44.540Z,98398.84
2023-03-11T00:39:57.422Z,98395.22
2023-03-11T00:40:12.751Z,98395.22
2023-03-11T00:40:28.431Z,98395.22
2023-03-11T00:40:42.473Z,98387.28
2023-03-11T00:40:55.037Z,98399.69
2023-03-11T00:41:07.630Z,98398.72
2023-03-11T00:41:20.358Z,98396.09
2023-03-11T00:41:33.222Z,98395.22
2023-03-11T00:41:45.790Z,98390.94
2023-03-11T00:41:58.384Z,98388.28
2023-03-11T00:42:11.982Z,98393.56
2023-03-11T00:42:24.641Z,98395.22
2023-03-11T00:42:37.240Z,98391.75
2023-03-11T00:42:49.989Z,98388.28
2023-03-11T00:43:03.702Z,98398.84
2023-03-11T00:43:17.054Z,98394.41
2023-03-11T00:43:30.650Z,98393.56
2023-03-11T00:43:43.744Z,98384.25
2023-03-11T00:43:56.335Z,98395.38
2023-03-11T00:44:09.188Z,98393.69
2023-03-11T00:44:21.783Z,98388.41
2023-03-11T00:44:34.394Z,98393.69
2023-03-11T00:44:47.017Z,98396.34
2023-03-11T00:44:59.648Z,98391.06
2023-03-11T00:45:15.791Z,98398.03
2023-03-11T00:45:30.130Z,98393.81
2023-03-11T00:45:43.355Z,98395.50
2023-03-11T00:45:55.974Z,98392.88
2023-03-11T00:46:09.698Z,98388.53
2023-03-11T00:46:22.398Z,98392.88
2023-03-11T00:46:35.021Z,98390.22
2023-03-11T00:46:47.870Z,98388.53
2023-03-11T00:47:01.498Z,98390.22
2023-03-11T00:47:14.149Z,98399.13
2023-03-11T00:47:26.726Z,98383.25
2023-03-11T00:47:39.952Z,98393.00
2023-03-11T00:47:53.476Z,98390.22
2023-03-11T00:48:07.027Z,98390.22
2023-03-11T00:48:20.645Z,98384.09
2023-03-11T00:48:33.364Z,98394.69
2023-03-11T00:48:46.132Z,98388.53
2023-03-11T00:48:58.752Z,98389.53
2023-03-11T00:49:11.425Z,98384.25
2023-03-11T00:49:23.995Z,98388.69
2023-03-11T00:49:36.782Z,98389.53
2023-03-11T00:49:49.350Z,98384.25
2023-03-11T00:50:04.612Z,98385.19
2023-03-11T00:50:19.693Z,98389.53
2023-03-11T00:50:35.405Z,98386.06
2023-03-11T00:50:48.152Z,98388.69
2023-03-11T00:51:00.996Z,98387.00
2023-03-11T00:51:16.438Z,98386.06
2023-03-11T00:51:29.447Z,98388.81
2023-03-11T00:51:42.204Z,98388.00
2023-03-11T00:51:54.930Z,98389.81
2023-03-11T00:52:07.519Z,98385.47
2023-03-11T00:52:20.118Z,98386.31
2023-03-11T00:52:32.732Z,98390.78
2023-03-11T00:52:45.902Z,98393.41
2023-03-11T00:53:00.441Z,98389.13
2023-03-11T00:53:13.166Z,98383.81
2023-03-11T00:53:25.798Z,98383.81
2023-03-11T00:53:38.370Z,98387.44
2023-03-11T00:53:50.988Z,98382.16
2023-03-11T00:54:03.781Z,98390.06
2023-03-11T00:54:17.359Z,98391.88
2023-03-11T00:54:29.943Z,98381.44
2023-03-11T00:54:42.646Z,98378.81
2023-03-11T00:54:55.472Z,98390.19
2023-03-11T00:55:08.889Z,98386.72
2023-03-11T00:55:23.661Z,98382.44
2023-03-11T00:55:37.464Z,98382.44
2023-03-11T00:55:50.067Z,98382.44
2023-03-11T00:56:07.694Z,98382.44
2023-03-11T00:56:21.396Z,98380.75
2023-03-11T00:56:34.003Z,98384.22
2023-03-11T00:56:46.592Z,98386.84
2023-03-11T00:57:00.182Z,98384.22
2023-03-11T00:57:12.842Z,98381.56
2023-03-11T00:57:26.702Z,98381.56
2023-03-11T00:57:40.146Z,98382.44
2023-03-11T00:57:54.223Z,98378.09
2023-03-11T00:58:07.535Z,98385.19
2023-03-11T00:58:22.788Z,98380.75
2023-03-11T00:58:35.938Z,98383.38
2023-03-11T00:58:48.519Z,98379.09
2023-03-11T00:59:01.114Z,98380.75
2023-03-11T00:59:13.706Z,98381.56
2023-03-11T00:59:26.348Z,98386.03
2023-03-11T00:59:39.078Z,98385.19
2023-03-11T00:59:51.708Z,98383.38
2023-03-11T01:00:06.841Z,98381.56
2023-03-11T01:00:22.779Z,98381.56
2023-03-11T01:00:35.682Z,98379.91
2023-03-11T01:00:48.334Z,98386.03
2023-03-11T01:01:01.044Z,98381.72
2023-03-11T01:01:16.716Z,98379.09
2023-03-11T01:01:29.356Z,98385.19
2023-03-11T01:01:43.070Z,98381.72
2023-03-11T01:01:55.698Z,98376.56
2023-03-11T01:02:08.287Z,98376.44
2023-03-11T01:02:20.914Z,98383.53
2023-03-11T01:02:35.671Z,98384.38
2023-03-11T01:02:48.681Z,98386.19
2023-03-11T01:03:01.407Z,98384.38
2023-03-11T01:03:14.065Z,98387.03
2023-03-11T01:03:27.646Z,98386.03
2023-03-11T01:03:40.476Z,98388.69
2023-03-11T01:03:53.133Z,98390.38
2023-03-11T01:04:06.242Z,98385.19
2023-03-11T01:04:19.002Z,98392.16
2023-03-11T01:04:31.666Z,98383.38
2023-03-11T01:04:44.307Z,98381.56
2023-03-11T01:04:56.982Z,98379.91
2023-03-11T01:05:12.837Z,98385.06
2023-03-11T01:05:29.148Z,98382.44
2023-03-11T01:05:42.003Z,98383.25
2023-03-11T01:05:54.631Z,98387.72
2023-03-11T01:06:08.059Z,98380.75
2023-03-11T01:06:21.243Z,98387.72
2023-03-11T01:06:44.789Z,98382.44
2023-03-11T01:06:59.205Z,98383.25
2023-03-11T01:07:11.833Z,98382.44
2023-03-11T01:07:24.708Z,98388.53
2023-03-11T01:07:37.475Z,98384.09
2023-03-11T01:07:50.093Z,98385.78
2023-03-11T01:08:04.144Z,98384.09
2023-03-11T01:08:17.763Z,98388.53
2023-03-11T01:08:31.537Z,98381.44
2023-03-11T01:08:44.224Z,98384.91
2023-03-11T01:08:56.800Z,98384.09
2023-03-11T01:09:09.494Z,98384.09
2023-03-11T01:09:22.118Z,98380.63
2023-03-11T01:09:34.768Z,98378.81
2023-03-11T01:09:48.372Z,98385.91
2023-03-11T01:10:01.025Z,98380.63
2023-03-11T01:10:13.888Z,98382.44
2023-03-11T01:10:27.913Z,98382.44
2023-03-11T01:10:40.527Z,98377.97
2023-03-11T01:10:53.248Z,98383.25
2023-03-11T01:11:07.919Z,98384.09
2023-03-11T01:11:20.541Z,98383.25
2023-03-11T01:11:33.187Z,98379.78
2023-03-11T01:11:45.769Z,98387.72
2023-03-11T01:11:58.474Z,98386.72
2023-03-11T01:12:11.092Z,98385.06
2023-03-11T01:12:23.702Z,98387.72
2023-03-11T01:12:37.457Z,98385.06
2023-03-11T01:12:50.091Z,98388.53
2023-03-11T01:13:03.556Z,98390.38
2023-03-11T01:13:16.148Z,98381.56
2023-03-11T01:13:30.712Z,98386.84
2023-03-11T01:13:43.287Z,98384.22
2023-03-11T01:13:56.893Z,98380.75
2023-03-11T01:14:10.063Z,98385.06
2023-03-11T01:14:23.364Z,98380.75
2023-03-11T01:14:35.983Z,98383.38
2023-03-11T01:14:48.597Z,98380.75
2023-03-11T01:15:01.279Z,98377.28
2023-03-11T01:15:18.588Z,98385.19
2023-03-11T01:15:35.021Z,98379.09
2023-03-11T01:15:47.634Z,98383.38
2023-03-11T01:16:01.094Z,98389.50
2023-03-11T01:16:13.799Z,98386.03
2023-03-11T01:16:26.475Z,98393.00
2023-03-11T01:16:39.201Z,98381.56
2023-03-11T01:16:51.791Z,98387.72
2023-03-11T01:17:04.506Z,98383.38
2023-03-11T01:17:18.111Z,98386.84
2023-03-11T01:17:30.793Z,98385.06
2023-03-11T01:17:43.402Z,98387.72
2023-03-11T01:17:56.097Z,98379.78
2023-03-11T01:18:09.031Z,98379.78
2023-03-11T01:18:21.892Z,98378.81
2023-03-11T01:18:35.494Z,98377.16
2023-03-11T01:18:48.374Z,98379.63
2023-03-11T01:19:01.096Z,98379.78
2023-03-11T01:19:14.224Z,98379.63
2023-03-11T01:19:26.868Z,98378.81
2023-03-11T01:19:39.513Z,98376.16
2023-03-11T01:19:52.295Z,98373.50
2023-03-11T01:20:07.860Z,98380.47
2023-03-11T01:20:23.250Z,98378.66
2023-03-11T01:20:37.819Z,98380.47
2023-03-11T01:20:50.613Z,98385.78
2023-03-11T01:21:03.447Z,98376.16
2023-03-11T01:21:16.205Z,98366.81
2023-03-11T01:21:28.798Z,98378.81
2023-03-11T01:21:43.047Z,98371.84
2023-03-11T01:21:56.944Z,98375.31
2023-03-11T01:22:10.303Z,98374.50
2023-03-11T01:22:23.197Z,98371.84
2023-03-11T01:22:35.897Z,98376.28
2023-03-11T01:22:49.183Z,98375.47
2023-03-11T01:23:02.941Z,98371.84
2023-03-11T01:23:17.372Z,98374.50
2023-03-11T01:23:30.185Z,98370.16
2023-03-11T01:23:43.161Z,98375.47
2023-03-11T01:23:55.791Z,98371.84
2023-03-11T01:24:09.913Z,98372.81
2023-03-11T01:24:22.522Z,98365.72
2023-03-11T01:24:35.123Z,98375.47
2023-03-11T01:24:47.774Z,98370.16
2023-03-11T01:25:00.433Z,98368.34
2023-03-11T01:25:14.604Z,98364.88
2023-03-11T01:25:27.281Z,98367.53
2023-03-11T01:25:41.263Z,98371.84
2023-03-11T01:25:53.856Z,98375.47
2023-03-11T01:26:06.463Z,98369.22
2023-03-11T01:26:19.037Z,98369.34
2023-03-11T01:26:31.642Z,98365.72
2023-03-11T01:26:44.903Z,98371.84
2023-03-11T01:26:58.839Z,98367.53
2023-03-11T01:27:11.551Z,98372.69
2023-03-11T01:27:24.124Z,98370.88
2023-03-11T01:27:36.699Z,98365.59
2023-03-11T01:27:49.557Z,98362.94
2023-03-11T01:28:02.135Z,98368.22
2023-03-11T01:28:15.740Z,98367.41
2023-03-11T01:28:28.487Z,98368.22
2023-03-11T01:28:41.298Z,98369.91
2023-03-11T01:28:54.026Z,98365.59
2023-03-11T01:29:06.610Z,98365.44
2023-03-11T01:29:19.200Z,98364.63
2023-03-11T01:29:32.044Z,98369.91
2023-03-11T01:29:44.637Z,98373.50
2023-03-11T01:29:58.350Z,98366.41
2023-03-11T01:30:15.048Z,98369.91
2023-03-11T01:30:28.746Z,98363.75
2023-03-11T01:30:42.361Z,98365.59
2023-03-11T01:30:55.033Z,98369.06
2023-03-11T01:31:09.588Z,98363.75
2023-03-11T01:31:22.269Z,98362.94
2023-03-11T01:31:35.834Z,98364.63
2023-03-11T01:31:48.625Z,98363.94
2023-03-11T01:32:01.252Z,98371.69
2023-03-11T01:32:13.865Z,98369.91
2023-03-11T01:32:26.574Z,98364.75
2023-03-11T01:32:39.185Z,98368.22
2023-03-11T01:32:54.755Z,98362.94
2023-03-11T01:33:08.955Z,98367.41
2023-03-11T01:33:21.818Z,98367.53
2023-03-11T01:33:34.474Z,98365.72
2023-03-11T01:33:47.139Z,98370.16
2023-03-11T01:33:59.785Z,98371.00
2023-03-11T01:34:12.843Z,98370.16
2023-03-11T01:34:26.586Z,98367.53
2023-03-11T01:34:39.244Z,98366.56
2023-03-11T01:34:51.849Z,98368.50
2023-03-11T01:35:04.849Z,98375.47
2023-03-11T01:35:19.953Z,98372.81
2023-03-11T01:35:35.474Z,98370.16
2023-03-11T01:35:49.404Z,98371.16
2023-03-11T01:36:02.500Z,98371.16
2023-03-11T01:36:15.148Z,98373.81
2023-03-11T01:36:28.034Z,98371.16
2023-03-11T01:36:40.647Z,98367.69
2023-03-11T01:36:53.222Z,98372.13
2023-03-11T01:37:05.872Z,98368.50
2023-03-11T01:37:20.342Z,98376.44
2023-03-11T01:37:33.929Z,98371.16
2023-03-11T01:37:47.246Z,98366.81
2023-03-11T01:38:00.330Z,98377.41
2023-03-11T01:38:13.349Z,98368.78
2023-03-11T01:38:26.022Z,98381.03
2023-03-11T01:38:38.650Z,98369.63
2023-03-11T01:38:51.283Z,98373.09
2023-03-11T01:39:04.007Z,98374.06
2023-03-11T01:39:17.655Z,98371.41
2023-03-11T01:39:30.556Z,98373.09
2023-03-11T01:39:43.205Z,98373.09
2023-03-11T01:39:55.763Z,98379.34
2023-03-11T01:40:14.909Z,98373.09
2023-03-11T01:40:31.381Z,98370.47
2023-03-11T01:40:45.925Z,98370.47
2023-03-11T01:40:59.523Z,98373.94
2023-03-11T01:41:12.860Z,98376.56
2023-03-11T01:41:25.468Z,98377.56
2023-03-11T01:41:38.075Z,98367.00
2023-03-11T01:41:52.600Z,98371.41
2023-03-11T01:42:05.749Z,98368.78
2023-03-11T01:42:18.340Z,98367.94
2023-03-11T01:42:30.922Z,98360.13
2023-03-11T01:42:43.534Z,98363.66
2023-03-11T01:42:57.286Z,98370.72
2023-03-11T01:43:39.967Z,98371.56
2023-03-11T01:43:54.720Z,98368.06
2023-03-11T01:44:07.782Z,98361.00
2023-03-11T01:44:21.399Z,98365.44
2023-03-11T01:44:34.005Z,98366.28
2023-03-11T01:44:46.614Z,98362.66
2023-03-11T01:44:59.404Z,98366.28
2023-03-11T01:45:35.969Z,98364.47
2023-03-11T01:46:10.003Z,98368.78
2023-03-11T01:46:25.106Z,98368.78
2023-03-11T01:47:16.286Z,98370.47
2023-03-11T01:47:38.936Z,98370.47
2023-03-11T01:47:51.550Z,98369.63
2023-03-11T01:48:04.146Z,98370.47
2023-03-11T01:48:16.839Z,98367.81
2023-03-11T01:48:29.651Z,98371.28
2023-03-11T01:48:47.985Z,98368.63
2023-03-11T01:49:02.651Z,98367.81
2023-03-11T01:49:15.259Z,98373.94
2023-03-11T01:49:28.287Z,98367.81
2023-03-11T01:49:42.197Z,98380.19
2023-03-11T01:49:54.883Z,98371.28
2023-03-11T01:50:13.771Z,98373.94
2023-03-11T01:50:31.748Z,98366.00
2023-03-11T01:50:50.289Z,98371.28
2023-03-11T01:51:03.038Z,98373.09
2023-03-11T01:51:19.890Z,98373.09
2023-03-11T01:51:37.293Z,98375.75
2023-03-11T01:51:54.494Z,98375.75
2023-03-11T01:52:08.290Z,98375.75
2023-03-11T01:52:21.288Z,98377.56
2023-03-11T01:52:34.017Z,98377.56
2023-03-11T01:52:47.843Z,98382.00
2023-03-11T01:53:00.658Z,98372.41
2023-03-11T01:53:14.134Z,98378.66
2023-03-11T01:53:28.307Z,98383.81
2023-03-11T01:53:41.123Z,98380.47
2023-03-11T01:53:55.063Z,98373.53
2023-03-11T01:54:11.641Z,98379.63
2023-03-11T01:54:27.471Z,98377.94
2023-03-11T01:54:42.636Z,98384.09
2023-03-11T01:54:55.206Z,98383.22
2023-03-11T01:55:09.068Z,98377.94
2023-03-11T01:55:22.960Z,98377.94
2023-03-11T01:55:36.332Z,98381.56
2023-03-11T01:55:49.574Z,98380.75
2023-03-11T01:56:03.573Z,98382.41
2023-03-11T01:56:17.652Z,98380.59
2023-03-11T01:56:31.408Z,98381.44
2023-03-11T01:56:45.511Z,98377.94
2023-03-11T01:56:59.649Z,98380.59
2023-03-11T01:57:14.263Z,98377.94
2023-03-11T01:57:27.005Z,98371.00
2023-03-11T01:57:42.068Z,98375.31
2023-03-11T01:57:55.396Z,98376.28
2023-03-11T01:58:12.152Z,98374.47
2023-03-11T01:58:27.003Z,98380.59
2023-03-11T01:58:41.969Z,98372.66
2023-03-11T01:58:55.140Z,98378.81
2023-03-11T01:59:09.129Z,98375.31
2023-03-11T01:59:25.271Z,98382.28
2023-03-11T01:59:42.238Z,98378.81
2023-03-11T01:59:59.609Z,98377.94
2023-03-11T02:00:15.852Z,98379.63
2023-03-11T02:00:28.608Z,98379.63
2023-03-11T02:00:42.796Z,98375.16
2023-03-11T02:00:56.840Z,98377.00
2023-03-11T02:01:09.793Z,98379.63
2023-03-11T02:01:24.138Z,98373.53
2023-03-11T02:01:45.171Z,98382.28
2023-03-11T02:02:05.558Z,98380.59
2023-03-11T02:02:21.869Z,98377.13
2023-03-11T02:02:38.218Z,98381.56
2023-03-11T02:02:52.727Z,98375.47
2023-03-11T02:03:12.592Z,98381.56
2023-03-11T02:03:29.645Z,98380.59
2023-03-11T02:03:43.076Z,98383.22
2023-03-11T02:03:56.766Z,98379.63
2023-03-11T02:04:10.000Z,98379.63
2023-03-11T02:04:22.615Z,98377.94
2023-03-11T02:04:38.054Z,98380.59
2023-03-11T02:04:51.302Z,98378.94
2023-03-11T02:05:04.655Z,98378.09
2023-03-11T02:05:20.154Z,98376.41
2023-03-11T02:05:33.259Z,98383.22
2023-03-11T02:05:51.199Z,98382.41
2023-03-11T02:06:08.250Z,98382.41
2023-03-11T02:06:23.844Z,98385.03
2023-03-11T02:06:36.634Z,98382.41
2023-03-11T02:06:51.398Z,98383.22
2023-03-11T02:07:07.688Z,98383.22
2023-03-11T02:07:21.269Z,98384.22
2023-03-11T02:07:34.176Z,98383.22
2023-03-11T02:07:47.383Z,98377.13
2023-03-11T02:08:00.562Z,98384.91
2023-03-11T02:08:13.147Z,98385.88
2023-03-11T02:08:25.754Z,98382.28
2023-03-11T02:08:39.695Z,98383.09
2023-03-11T02:08:53.308Z,98379.63
2023-03-11T02:09:06.212Z,98375.16
2023-03-11T02:09:18.825Z,98379.63
2023-03-11T02:09:31.415Z,98369.88
2023-03-11T02:09:44.610Z,98378.66
2023-03-11T02:09:57.230Z,98379.63
2023-03-11T02:10:11.750Z,98383.94
2023-03-11T02:10:25.408Z,98377.81
2023-03-11T02:10:39.101Z,98380.47
2023-03-11T02:10:53.294Z,98382.97
2023-03-11T02:11:10.021Z,98383.94
2023-03-11T02:11:27.009Z,98381.28
2023-03-11T02:11:40.598Z,98381.28
2023-03-11T02:11:53.836Z,98383.09
2023-03-11T02:12:10.032Z,98383.09
2023-03-11T02:12:23.020Z,98377.00
2023-03-11T02:12:36.917Z,98381.28
2023-03-11T02:12:51.517Z,98385.75
2023-03-11T02:13:04.571Z,98382.16
2023-03-11T02:13:18.602Z,98383.09
2023-03-11T02:13:34.482Z,98382.28
2023-03-11T02:13:47.424Z,98377.94
2023-03-11T02:14:04.672Z,98390.22
2023-03-11T02:14:17.691Z,98380.59
2023-03-11T02:14:33.049Z,98382.41
2023-03-11T02:14:49.032Z,98381.56
2023-03-11T02:15:02.396Z,98380.59
2023-03-11T02:15:15.507Z,98381.56
2023-03-11T02:15:28.427Z,98380.59
2023-03-11T02:15:42.352Z,98378.94
2023-03-11T02:15:55.066Z,98379.06
2023-03-11T02:16:09.123Z,98380.03
2023-03-11T02:16:21.984Z,98377.28
2023-03-11T02:16:35.092Z,98381.56
2023-03-11T02:16:47.753Z,98378.09
2023-03-11T02:17:00.986Z,98384.34
2023-03-11T02:17:14.915Z,98379.06
2023-03-11T02:17:27.553Z,98379.06
2023-03-11T02:17:42.409Z,98383.53
2023-03-11T02:17:56.482Z,98378.22
2023-03-11T02:18:09.765Z,98383.53
2023-03-11T02:18:22.613Z,98382.69
2023-03-11T02:18:35.858Z,98384.34
2023-03-11T02:18:49.653Z,98383.53
2023-03-11T02:19:12.829Z,98380.88
2023-03-11T02:19:36.524Z,98385.34
2023-03-11T02:20:06.330Z,98381.69
2023-03-11T02:20:31.201Z,98386.88
2023-03-11T02:20:51.387Z,98393.97
2023-03-11T02:21:13.770Z,98394.91
2023-03-11T02:21:28.908Z,98386.03
2023-03-11T02:21:41.756Z,98386.03
2023-03-11T02:21:54.950Z,98393.13
2023-03-11T02:22:09.939Z,98393.13
2023-03-11T02:22:23.426Z,98390.50
2023-03-11T02:22:36.267Z,98387.97
2023-03-11T02:22:49.821Z,98394.22
2023-03-11T02:23:02.828Z,98396.88
2023-03-11T02:23:17.899Z,98393.38
2023-03-11T02:23:44.069Z,98394.09
2023-03-11T02:24:05.793Z,98393.38
2023-03-11T02:24:26.323Z,98396.88
2023-03-11T02:24:45.319Z,98390.75
2023-03-11T02:25:03.762Z,98396.88
2023-03-11T02:25:26.465Z,98395.06
2023-03-11T02:25:44.185Z,98398.69
2023-03-11T02:26:04.570Z,98396.16
2023-03-11T02:26:23.699Z,98394.22
2023-03-11T02:26:43.365Z,98394.09
2023-03-11T02:27:01.095Z,98387.00
2023-03-11T02:27:16.756Z,98392.44
2023-03-11T02:27:33.122Z,98396.03
2023-03-11T02:27:49.153Z,98392.44
2023-03-11T02:28:05.638Z,98392.44
2023-03-11T02:28:21.013Z,98390.75
2023-03-11T02:28:36.302Z,98393.25
2023-03-11T02:28:50.545Z,98397.72
2023-03-11T02:29:06.009Z,98388.81
2023-03-11T02:29:20.369Z,98399.38
2023-03-11T02:29:34.247Z,98387.28
2023-03-11T02:29:49.797Z,98388.81
2023-03-11T02:30:03.539Z,98398.56
2023-03-11T02:30:18.557Z,98391.44
2023-03-11T02:30:33.111Z,98392.44
2023-03-11T02:30:47.081Z,98388.81
2023-03-11T02:30:59.779Z,98386.28
2023-03-11T02:31:13.624Z,98388.81
2023-03-11T02:31:26.540Z,98397.56
2023-03-11T02:31:43.255Z,98393.25
2023-03-11T02:31:57.106Z,98394.09
2023-03-11T02:32:11.159Z,98394.09
2023-03-11T02:32:24.636Z,98394.09
2023-03-11T02:32:38.219Z,98393.25
2023-03-11T02:32:51.327Z,98388.81
2023-03-11T02:33:04.090Z,98395.91
2023-03-11T02:33:19.824Z,98394.09
2023-03-11T02:33:33.141Z,98400.19
2023-03-11T02:33:49.305Z,98394.09
2023-03-11T02:34:03.910Z,98396.72
2023-03-11T02:34:27.259Z,98391.56
2023-03-11T02:34:40.208Z,98386.44
2023-03-11T02:34:53.810Z,98390.63
2023-03-11T02:35:07.547Z,98392.44
2023-03-11T02:35:20.997Z,98392.44
2023-03-11T02:35:33.620Z,98391.44
2023-03-11T02:35:46.278Z,98394.09
2023-03-11T02:35:59.311Z,98392.44
2023-03-11T02:36:30.657Z,98393.25
2023-03-11T02:36:44.556Z,98391.56
2023-03-11T02:36:59.114Z,98397.72
2023-03-11T02:37:13.819Z,98390.75
2023-03-11T02:37:26.464Z,98386.28
2023-03-11T02:37:44.906Z,98390.63
2023-03-11T02:37:57.607Z,98398.56
2023-03-11T02:38:11.272Z,98389.78
2023-03-11T02:38:24.491Z,98393.25
2023-03-11T02:38:37.071Z,98388.94
2023-03-11T02:38:49.662Z,98393.25
2023-03-11T02:39:03.585Z,98396.72
2023-03-11T02:39:16.479Z,98397.72
2023-03-11T02:39:31.015Z,98397.72
2023-03-11T02:39:45.814Z,98395.06
2023-03-11T02:40:33.819Z,98394.09
2023-03-11T02:40:53.842Z,98393.25
2023-03-11T02:41:06.998Z,98394.09
2023-03-11T02:41:19.705Z,98393.25
2023-03-11T02:41:35.876Z,98397.72
2023-03-11T02:41:48.564Z,98395.06
2023-03-11T02:42:05.879Z,98392.44
2023-03-11T02:42:22.794Z,98393.25
2023-03-11T02:42:35.706Z,98392.44
2023-03-11T02:42:50.659Z,98392.44
2023-03-11T02:43:07.028Z,98397.72
2023-03-11T02:43:24.352Z,98392.44
2023-03-11T02:43:42.046Z,98394.22
2023-03-11T02:43:55.160Z,98388.09
2023-03-11T02:44:10.776Z,98394.22
2023-03-11T02:44:23.416Z,98394.22
2023-03-11T02:44:38.028Z,98396.03
2023-03-11T02:44:57.756Z,98393.38
2023-03-11T02:45:13.947Z,98392.69
2023-03-11T02:45:27.507Z,98394.38
2023-03-11T02:45:41.270Z,98402.31
2023-03-11T02:45:54.207Z,98395.34
2023-03-11T02:46:11.059Z,98395.34
2023-03-11T02:46:24.096Z,98392.69
2023-03-11T02:46:39.054Z,98395.34
2023-03-11T02:46:53.255Z,98396.31
2023-03-11T02:47:07.140Z,98400.63
2023-03-11T02:47:19.882Z,98397.97
2023-03-11T02:47:33.468Z,98393.69
2023-03-11T02:47:46.489Z,98391.88
2023-03-11T02:48:01.688Z,98397.97